createdAt,value
2023-03-02T00:01:08.643Z,58.6
2023-03-02T00:06:44.720Z,59.2
2023-03-02T00:12:19.725Z,60.1
2023-03-02T00:17:57.165Z,59.5
2023-03-02T00:23:40.341Z,59.6
2023-03-02T00:29:20.074Z,59.1
2023-03-02T00:34:54.863Z,58.9
2023-03-02T00:40:51.947Z,59
2023-03-02T00:46:29.613Z,59
2023-03-02T00:52:19.909Z,58.9
2023-03-02T00:57:57.217Z,58.9
2023-03-02T01:03:32.874Z,58.9
2023-03-02T01:09:08.188Z,58.5
2023-03-02T01:14:43.803Z,58.6
2023-03-02T01:20:19.549Z,58.8
2023-03-02T01:25:54.767Z,59.3
2023-03-02T01:31:30.835Z,59.5
2023-03-02T01:37:14.846Z,59.8
2023-03-02T01:42:51.058Z,60
2023-03-02T01:48:26.332Z,60.4
2023-03-02T01:54:02.112Z,60.6
2023-03-02T01:59:39.155Z,60.9
2023-03-02T02:05:35.619Z,60.8
2023-03-02T02:11:27.604Z,60.9
2023-03-02T02:17:04.289Z,60.8
2023-03-02T02:22:39.515Z,60.7
2023-03-02T02:28:14.885Z,60.6
2023-03-02T02:33:50.020Z,60.4
2023-03-02T02:39:25.580Z,60.2
2023-03-02T02:45:01.338Z,60.1
2023-03-02T02:50:41.333Z,60.3
2023-03-02T02:56:29.178Z,60.6
2023-03-02T03:02:19.744Z,60.6
2023-03-02T03:08:15.470Z,60.3
2023-03-02T03:14:19.543Z,60.7
2023-03-02T03:20:26.386Z,60.9
2023-03-02T03:26:01.223Z,61.2
2023-03-02T03:31:53.888Z,61.2
2023-03-02T03:37:30.407Z,61
2023-03-02T03:43:05.323Z,59.9
2023-03-02T03:49:01.719Z,59.2
2023-03-02T03:54:45.130Z,60.5
2023-03-02T04:00:20.289Z,60.7
2023-03-02T04:05:59.728Z,60.4
2023-03-02T04:11:35.538Z,59.5
2023-03-02T04:17:10.740Z,59
2023-03-02T04:23:02.466Z,60.2
2023-03-02T04:28:37.318Z,59.7
2023-03-02T04:34:18.621Z,59.3
2023-03-02T04:40:11.313Z,60.8
2023-03-02T04:45:46.955Z,60.1
2023-03-02T04:51:57.829Z,61.4
2023-03-02T04:57:50.890Z,60.6
2023-03-02T05:03:29.929Z,61
2023-03-02T05:09:08.783Z,61.6
2023-03-02T05:14:46.179Z,62.1
2023-03-02T05:20:21.626Z,61.1
2023-03-02T05:26:03.922Z,61.5
2023-03-02T05:33:08.993Z,60.9
2023-03-02T05:39:00.470Z,60.9
2023-03-02T05:44:35.861Z,61.7
2023-03-02T05:50:11.085Z,61.7
2023-03-02T05:55:59.568Z,61.2
2023-03-02T06:01:50.463Z,59.5
2023-03-02T06:07:31.879Z,58.7
2023-03-02T06:13:07.453Z,58.4
2023-03-02T06:18:42.749Z,59.4
2023-03-02T06:24:30.316Z,58.4
2023-03-02T06:30:05.993Z,58.5
2023-03-02T06:35:41.641Z,59.2
2023-03-02T06:41:18.542Z,58.2
2023-03-02T06:46:54.604Z,59.3
2023-03-02T06:52:31.663Z,58
2023-03-02T06:58:15.792Z,57.7
2023-03-02T07:03:56.701Z,58
2023-03-02T07:09:32.365Z,57.2
2023-03-02T07:15:17.781Z,62.8
2023-03-02T07:21:02.102Z,64
2023-03-02T07:26:40.560Z,63.9
2023-03-02T07:32:22.639Z,63
2023-03-02T07:38:09.777Z,62.5
2023-03-02T07:43:54.015Z,62.7
2023-03-02T07:49:32.353Z,61.6
2023-03-02T07:55:07.531Z,62.1
2023-03-02T08:00:45.912Z,62.1
2023-03-02T08:06:23.784Z,62.5
2023-03-02T08:11:58.931Z,61.3
2023-03-02T08:17:57.285Z,59.3
2023-03-02T08:23:33.542Z,60.8
2023-03-02T08:29:09.154Z,58.9
2023-03-02T08:34:48.349Z,59.6
2023-03-02T08:40:25.222Z,58.6
2023-03-02T08:46:25.466Z,59.1
2023-03-02T08:52:03.473Z,59.6
2023-03-02T08:58:00.259Z,58.6
2023-03-02T09:03:37.072Z,58
2023-03-02T09:09:14.888Z,58.8
2023-03-02T09:14:51.733Z,56.1
2023-03-02T09:20:47.636Z,55.5
2023-03-02T09:26:23.736Z,56.2
2023-03-02T09:32:07.193Z,56.4
2023-03-02T09:37:55.411Z,55.7
2023-03-02T09:43:31.233Z,54.6
2023-03-02T09:49:06.997Z,56
2023-03-02T09:54:43.072Z,57.2
2023-03-02T10:00:30.917Z,56.8
2023-03-02T10:06:42.389Z,57.6
2023-03-02T10:12:15.375Z,56.8
2023-03-02T10:19:22.778Z,52.9
2023-03-02T10:25:00.423Z,53.5
2023-03-02T10:30:36.216Z,51.9
2023-03-02T10:36:12.038Z,51.2
2023-03-02T10:41:47.188Z,51.3
2023-03-02T10:47:23.418Z,52.3
2023-03-02T10:53:03.605Z,51.1
2023-03-02T10:58:56.507Z,51
2023-03-02T11:04:32.979Z,53.1
2023-03-02T11:10:33.781Z,52.4
2023-03-02T11:16:20.789Z,49.5
2023-03-02T11:22:09.207Z,52.6
2023-03-02T11:27:44.990Z,53.9
2023-03-02T11:33:23.534Z,56.1
2023-03-02T11:38:59.392Z,57.1
2023-03-02T11:44:37.143Z,55.5
2023-03-02T11:50:12.625Z,52.8
2023-03-02T11:55:47.959Z,51.5
2023-03-02T12:01:23.266Z,51.9
2023-03-02T12:07:00.543Z,51.2
2023-03-02T12:12:36.027Z,50.7
2023-03-02T12:18:10.914Z,52.3
2023-03-02T12:23:46.356Z,51.4
2023-03-02T12:29:22.775Z,48.2
2023-03-02T12:36:23.293Z,48
2023-03-02T12:41:59.091Z,47.6
2023-03-02T12:47:36.097Z,48.8
2023-03-02T12:53:12.500Z,48.9
2023-03-02T12:58:48.234Z,47.1
2023-03-02T13:04:33.431Z,48.2
2023-03-02T13:10:12.689Z,46.9
2023-03-02T13:15:49.182Z,48.4
2023-03-02T13:21:24.474Z,50
2023-03-02T13:27:16.335Z,51.6
2023-03-02T13:32:56.067Z,53
2023-03-02T13:38:31.412Z,49.7
2023-03-02T13:44:10.072Z,48.8
2023-03-02T13:49:44.926Z,48.3
2023-03-02T13:55:20.748Z,51.1
2023-03-02T14:01:49.419Z,54
2023-03-02T14:08:12.098Z,56.7
2023-03-02T14:13:57.493Z,55.8
2023-03-02T14:19:33.779Z,56.3
2023-03-02T14:25:28.972Z,57.3
2023-03-02T14:31:05.066Z,54.9
2023-03-02T14:36:41.719Z,53.9
2023-03-02T14:42:18.398Z,54.1
2023-03-02T14:48:02.750Z,55.7
2023-03-02T14:53:37.841Z,55.2
2023-03-02T14:59:13.332Z,56.6
2023-03-02T15:05:01.772Z,59.2
2023-03-02T15:11:04.051Z,56.7
2023-03-02T15:17:00.390Z,54.5
2023-03-02T15:22:37.643Z,53.3
2023-03-02T15:28:16.338Z,50.6
2023-03-02T15:33:52.533Z,51.6
2023-03-02T15:39:28.635Z,54.3
2023-03-02T15:45:06.865Z,55.9
2023-03-02T15:50:43.883Z,57
2023-03-02T15:56:18.876Z,57
2023-03-02T16:01:54.397Z,57.3
2023-03-02T16:07:29.926Z,56.7
2023-03-02T16:13:07.480Z,56.9
2023-03-02T16:18:42.749Z,54.5
2023-03-02T16:24:19.010Z,53.9
2023-03-02T16:29:57.051Z,53.2
2023-03-02T16:35:32.161Z,53
2023-03-02T16:41:53.866Z,54.8
2023-03-02T16:47:30.356Z,54.9
2023-03-02T16:53:05.519Z,56.2
2023-03-02T16:58:41.933Z,58.7
2023-03-02T17:04:17.595Z,59.1
2023-03-02T17:09:53.558Z,60.2
2023-03-02T17:15:29.705Z,61.2
2023-03-02T17:21:05.410Z,62.5
2023-03-02T17:26:48.864Z,62.8
2023-03-02T17:32:24.748Z,62.6
2023-03-02T17:38:02.603Z,65.4
2023-03-02T17:43:46.958Z,63.3
2023-03-02T17:49:22.195Z,65.2
2023-03-02T17:55:00.965Z,64.5
2023-03-02T18:00:38.802Z,66.2
2023-03-02T18:06:28.449Z,65.2
2023-03-02T18:12:03.453Z,63
2023-03-02T18:17:38.430Z,61.9
2023-03-02T18:23:35.193Z,61.5
2023-03-02T18:29:13.542Z,61.6
2023-03-02T18:34:52.818Z,61.3
2023-03-02T18:40:28.354Z,61.8
2023-03-02T18:46:09.023Z,61.9
2023-03-02T18:51:53.943Z,61.6
2023-03-02T18:57:41.701Z,62.3
2023-03-02T19:03:38.764Z,64.1
2023-03-02T19:09:57.511Z,64.9
2023-03-02T19:15:41.830Z,65.6
2023-03-02T19:21:43.554Z,65
2023-03-02T19:27:19.166Z,65.1
2023-03-02T19:32:54.766Z,65.4
2023-03-02T19:38:29.943Z,65.3
2023-03-02T19:44:19.386Z,65.5
2023-03-02T19:49:56.735Z,65.1
2023-03-02T19:55:40.716Z,64.9
2023-03-02T20:01:22.793Z,65.3
2023-03-02T20:07:02.656Z,65.1
2023-03-02T20:12:59.135Z,64.1
2023-03-02T20:19:02.027Z,64.5
2023-03-02T20:24:37.258Z,64.5
2023-03-02T20:30:18.435Z,64.1
2023-03-02T20:36:19.759Z,64
2023-03-02T20:42:07.840Z,63.9
2023-03-02T20:48:08.793Z,63.7
2023-03-02T20:53:46.319Z,63.5
2023-03-02T20:59:26.867Z,63.6
2023-03-02T21:05:03.840Z,63.4
2023-03-02T21:10:39.511Z,63.1
2023-03-02T21:16:29.937Z,63.7
2023-03-02T21:22:05.859Z,63.7
2023-03-02T21:27:43.911Z,63.6
2023-03-02T21:33:22.329Z,63.4
2023-03-02T21:39:05.341Z,63.2
2023-03-02T21:44:44.052Z,63.1
2023-03-02T21:50:19.818Z,63.1
2023-03-02T21:56:19.746Z,62.6
2023-03-02T22:02:34.640Z,63.1
2023-03-02T22:08:37.474Z,62.6
2023-03-02T22:14:11.508Z,63.3
2023-03-02T22:19:47.288Z,62.4
2023-03-02T22:25:26.335Z,62.5
2023-03-02T22:31:10.721Z,62.2
2023-03-02T22:36:46.063Z,62
2023-03-02T22:42:33.419Z,62
2023-03-02T22:48:17.366Z,62.1
2023-03-02T22:53:55.581Z,62.4
2023-03-02T22:59:46.397Z,62.8
2023-03-02T23:06:20.175Z,63.2
2023-03-02T23:11:53.358Z,63.1
2023-03-02T23:17:33.774Z,63.4
2023-03-02T23:23:18.964Z,64.4
2023-03-02T23:28:53.768Z,64.1
2023-03-02T23:34:29.137Z,64.2
2023-03-02T23:40:11.522Z,64.6
2023-03-02T23:45:47.091Z,65.5
2023-03-02T23:51:23.796Z,66.3
2023-03-02T23:57:19.767Z,66.8
